• Join FlightAware (Why Join?)
  • Login
  • US Flag 
10:15PM EST


 

Airport Tracker/Info


-or-


 

Live Flight TrackerFlight Track Log ✈ JBU1475 ✈ 04-Jul-2013 ✈ KBOS - KOAK

Flight Track Log - Related Links

Times and Time Zones

All times are in EDT time to prevent confusion due to time zone crossing. See the JBU1475 flight status page for this flight to view local times or setup timezone preferences in your user account.

Time Position Orientation Groundspeed Altitude Reporting Facility
EDT Latitude Longitude Course Direction KTS MPH feet Rate Location/Type
08:12PM 42.3500 -71.0167 300° West 168 193 800  Level KA90
08:13PM 42.3000 -70.9667 144° Southeast 236 272 1,900 1,620 Climbing KA90
08:14PM 42.3144 -70.8733 78° East 292 336 4,000 2,400 Climbing Boston Center
08:15PM 42.5887 -70.8552 308° West  Level FlightAware Approximate
08:15PM 42.3464 -70.7686 68° East 292 336 6,500  Level Boston Center
08:16PM 42.6549 -70.9849 300° West  Level FlightAware Approximate
08:16PM 42.4167 -70.7247 25° Northeast 320 368 9,100  Level Boston Center
08:17PM 42.7122 -71.1227 300° West  Level FlightAware Approximate
08:17PM 42.4981 -70.7419 351° North 303 349 10,700  Level Boston Center
08:18PM 42.5639 -70.8219 318° Northwest 293 337 11,600 1,500 Climbing Boston Center
08:19PM 42.6175 -70.9364 303° West 321 369 13,700 1,860 Climbing Boston Center
08:20PM 42.6689 -71.0422 303° West 364 419 15,400 1,560 Climbing Boston Center
08:21PM 42.7289 -71.1711 302° West 379 436 16,900 1,380 Climbing Boston Center
08:22PM 42.7800 -71.2861 301° West 384 442 18,200 1,380 Climbing Boston Center
08:23PM 42.8003 -71.4469 280° West 381 438 19,700 1,500 Climbing Boston Center
08:24PM 42.8142 -71.5911 278° West 392 451 21,300 1,200 Climbing Boston Center
08:25PM 42.8256 -71.7381 276° West 392 451 22,200 900 Climbing Boston Center
08:26PM 42.8408 -71.8908 278° West 392 451 23,100 960 Climbing Boston Center
08:27PM 42.8561 -72.0436 278° West 403 464 24,200 900 Climbing Boston Center
08:28PM 42.8692 -72.1994 277° West 414 476 25,000 840 Climbing Boston Center
08:29PM 42.8881 -72.3581 279° West 414 476 25,900 780 Climbing Boston Center
08:30PM 42.9028 -72.5167 277° West 426 490 26,600 780 Climbing Boston Center
08:31PM 42.9108 -72.6611 274° West 426 490 27,500 780 Climbing Boston Center
08:32PM 42.9228 -72.8256 276° West 431 496 28,200 780 Climbing Boston Center
08:33PM 42.9408 -73.0100 278° West 442 509 29,100 900 Climbing Boston Center
08:34PM 42.9544 -73.1633 277° West 450 518 30,000 900 Climbing Boston Center
08:35PM 42.9681 -73.3253 277° West 445 512 30,900 900 Climbing Boston Center
08:36PM 42.9769 -73.5014 274° West 431 496 31,800 780 Climbing Boston Center
08:37PM 42.9897 -73.6664 276° West 431 496 32,500 780 Climbing Boston Center
08:38PM 43.0025 -73.8283 276° West 436 502 33,400 660 Climbing Boston Center
08:39PM 43.0172 -73.9906 277° West 436 502 33,900 300 Climbing Boston Center
08:40PM 43.0275 -74.1500 275° West 431 496 34,000  Climbing Boston Center
08:41PM 43.0394 -74.3122 276° West 431 496 34,000  Level Boston Center
08:42PM 43.0547 -74.5058 276° West 436 502 34,000  Level Boston Center
08:43PM 43.0664 -74.6739 275° West 442 509 34,000  Level Boston Center
08:44PM 43.0753 -74.8419 274° West 442 509 34,000 -60 Level Boston Center
08:45PM 43.0864 -75.0072 275° West 442 509 33,900 -60 Descending Boston Center
08:46PM 43.0953 -75.1556 275° West 442 509 33,900  Level Boston Center
08:47PM 43.1039 -75.3239 274° West 442 509 33,900  Level Boston Center
08:48PM 43.1161 -75.4894 276° West 442 509 34,000  Climbing Boston Center
08:49PM 43.1283 -75.6550 276° West 442 509 33,900  Descending Boston Center
08:50PM 43.1381 -75.8178 275° West 442 509 34,000  Climbing Boston Center
08:51PM 43.1478 -75.9833 275° West 442 509 34,000  Level Boston Center
08:53PM 43.1522 -76.3056 271° West 427 491 34,000  Level Cleveland Center
08:54PM 43.1394 -76.4686 264° West 427 491 34,000  Level Cleveland Center
08:55PM 43.1261 -76.6261 263° West 427 491 34,000  Level Cleveland Center
08:56PM 43.1133 -76.8061 265° West 427 491 34,000  Level Cleveland Center
08:57PM 43.1269 -76.9675 277° West 427 491 34,000  Level Cleveland Center
08:58PM 43.1403 -77.1289 277° West 427 491 34,000  Level Cleveland Center
08:59PM 43.1511 -77.2906 275° West 427 491 34,000  Level Cleveland Center
09:00PM 43.1619 -77.4494 275° West 427 491 34,000  Level Cleveland Center
09:01PM 43.1703 -77.6114 274° West 427 491 34,000  Level Cleveland Center
09:02PM 43.1806 -77.7703 275° West 427 491 34,000  Level Cleveland Center
09:03PM 43.1903 -77.9208 275° West 427 491 34,000  Level Cleveland Center
09:04PM 43.2000 -78.0800 275° West 427 491 34,000  Level Cleveland Center
09:05PM 43.2097 -78.2389 275° West 427 491 34,000  Level Cleveland Center
09:06PM 43.2211 -78.4008 276° West 427 491 34,000  Level Cleveland Center
09:07PM 43.2303 -78.5603 275° West 422 486 34,000  Level Cleveland Center
09:08PM 43.2372 -78.7194 273° West 422 486 34,000  Level Cleveland Center
09:09PM 43.2481 -78.8789 275° West 422 486 34,000  Level Cleveland Center
09:10PM 43.2500 -78.9667 272° West 420 483 34,000  Level Toronto Center
09:11PM 43.2500 -79.1333 270° West 420 483 34,000  Level Toronto Center
09:12PM 43.2667 -79.2833 279° West 420 483 34,000  Level Toronto Center
09:13PM 43.2667 -79.4500 270° West 420 483 34,000  Level Toronto Center
09:14PM 43.2667 -79.6167 270° West 420 483 34,000  Level Toronto Center
09:15PM 43.2833 -79.7667 279° West 420 483 34,000  Level Toronto Center
09:16PM 43.2833 -79.9333 270° West 420 483 34,000  Level Toronto Center
09:17PM 43.3000 -80.0833 279° West 420 483 34,000  Level Toronto Center
09:18PM 43.3000 -80.2500 270° West 420 483 34,000  Level Toronto Center
09:19PM 43.3167 -80.4167 278° West 420 483 34,000  Level Toronto Center
09:20PM 43.3167 -80.5667 270° West 420 483 34,000  Level Toronto Center
09:21PM 43.3167 -80.7333 270° West 420 483 34,000  Level Toronto Center
09:22PM 43.3167 -80.9000 270° West 420 483 34,000  Level Toronto Center
09:23PM 43.3167 -81.0333 270° West 420 483 34,000  Level Toronto Center
09:24PM 43.3333 -81.2167 277° West 420 483 34,000  Level Toronto Center
09:25PM 43.3333 -81.3500 270° West 420 483 34,000  Level Toronto Center
09:26PM 43.3500 -81.5333 277° West 420 483 34,000  Level Toronto Center
09:27PM 43.3500 -81.6667 270° West 420 483 34,000  Level Toronto Center
09:28PM 43.3667 -81.8333 278° West 420 483 34,000  Level Toronto Center
09:29PM 43.3500 -82.0000 262° West 420 483 34,000  Level Toronto Center
09:30PM 43.3500 -82.1500 270° West 420 483 34,000  Level Toronto Center
09:31PM 43.3667 -82.3167 278° West 420 483 34,000  Level Toronto Center
09:31PM 43.3786 -82.4569 277° West 422 486 34,000  Level Cleveland Center
09:32PM 43.3822 -82.6111 272° West 417 480 34,000  Level Cleveland Center
09:33PM 43.3836 -82.7711 271° West 417 480 34,000  Level Cleveland Center
09:34PM 43.3886 -82.9314 273° West 417 480 34,000  Level Cleveland Center
09:35PM 43.3894 -83.0942 270° West 423 487 34,000  Level Cleveland Center
09:36PM 43.3903 -83.2486 270° West 423 487 34,000  Level Cleveland Center
09:37PM 43.3947 -83.4086 272° West 423 487 34,000  Level Cleveland Center
09:38PM 43.3947 -83.4986 270° West 418 481 34,000  Level Minneapolis Center
09:39PM 43.3833 -83.5833 260° West 420 483 34,000  Level Toronto Center
09:40PM 43.3833 -83.7667 270° West 420 483 34,000  Level Toronto Center
09:40PM 43.3967 -83.8861 279° West 418 481 34,000  Level Cleveland Center
09:41PM 43.4003 -83.9753 273° West 417 480 34,000  Level Minneapolis Center
09:42PM 43.4014 -84.1333 271° West 415 478 34,000  Level Minneapolis Center
09:43PM 43.4022 -84.2931 270° West 417 480 34,000  Level Minneapolis Center
09:44PM 43.4036 -84.4519 271° West 418 481 34,000  Level Minneapolis Center
09:45PM 43.4042 -84.6097 270° West 416 479 34,000  Level Minneapolis Center
09:47PM 43.4044 -84.8325 270° West 416 479 34,000  Level Minneapolis Center
09:48PM 43.4050 -85.0203 270° West 413 475 34,000  Level Minneapolis Center
09:49PM 43.4044 -85.1786 270° West 413 475 34,000  Level Minneapolis Center
09:50PM 43.4044 -85.3358 270° West 414 476 34,000  Level Minneapolis Center
09:51PM 43.4042 -85.4925 270° West 414 476 34,000  Level Minneapolis Center
09:52PM 43.4036 -85.6475 270° West 410 472 34,000  Level Minneapolis Center
09:53PM 43.4017 -85.8042 269° West 412 474 34,000  Level Minneapolis Center
09:54PM 43.4008 -85.9600 270° West 413 475 34,000  Level Minneapolis Center
09:55PM 43.3997 -86.1158 269° West 413 475 34,000  Level Minneapolis Center
09:56PM 43.3986 -86.2397 269° West 412 474 34,000  Level Minneapolis Center
09:57PM 43.3950 -86.4553 269° West 410 472 34,000  Level Minneapolis Center
09:58PM 43.3933 -86.6069 269° West 404 465 34,000  Level Minneapolis Center
09:59PM 43.3906 -86.7594 269° West 402 463 34,000  Level Minneapolis Center
10:00PM 43.3883 -86.9133 269° West 404 465 34,000  Level Minneapolis Center
10:01PM 43.3853 -87.0656 268° West 401 461 34,000  Level Minneapolis Center
10:02PM 43.3825 -87.2203 269° West 406 467 34,000  Level Minneapolis Center
10:03PM 43.3783 -87.3944 268° West 408 470 34,000  Level Minneapolis Center
10:04PM 43.3747 -87.5506 268° West 408 470 34,000  Level Minneapolis Center
10:05PM 43.3711 -87.7075 268° West 409 471 34,000  Level Minneapolis Center
10:06PM 43.3672 -87.8633 268° West 406 467 34,000  Level Minneapolis Center
10:07PM 43.3631 -88.0197 268° West 407 468 34,000  Level Minneapolis Center
10:08PM 43.3581 -88.1769 268° West 409 471 34,000  Level Minneapolis Center
10:09PM 43.3522 -88.3353 267° West 411 473 34,000  Level Minneapolis Center
10:10PM 43.3461 -88.4989 267° West 414 476 34,000  Level Minneapolis Center
10:11PM 43.3425 -88.6622 268° West 418 481 34,000  Level Minneapolis Center
10:12PM 43.3383 -88.8197 268° West 413 475 34,000  Level Minneapolis Center
10:13PM 43.3328 -88.9775 267° West 412 474 34,000  Level Minneapolis Center
10:14PM 43.3278 -89.1344 268° West 412 474 34,000  Level Minneapolis Center
10:15PM 43.3217 -89.2928 267° West 414 476 34,000  Level Minneapolis Center
10:16PM 43.3144 -89.4492 266° West 411 473 34,000  Level Minneapolis Center
10:17PM 43.3083 -89.6031 267° West 407 468 34,000  Level Minneapolis Center
10:18PM 43.3017 -89.7600 267° West 409 471 34,000  Level Minneapolis Center
10:19PM 43.2942 -89.9156 266° West 409 471 34,000  Level Minneapolis Center
10:20PM 43.2869 -90.0719 266° West 410 472 34,000  Level Minneapolis Center
10:21PM 43.2794 -90.2306 266° West 416 479 34,000  Level Minneapolis Center
10:22PM 43.2733 -90.3833 267° West 419 482 34,000  Level Minneapolis Center
10:23PM 43.2653 -90.5419 266° West 420 483 34,000  Level Minneapolis Center
10:24PM 43.2547 -90.7356 266° West 428 493 34,000  Level Minneapolis Center
10:25PM 43.2478 -90.9028 267° West 439 505 34,000  Level Minneapolis Center
10:26PM 43.2389 -91.0719 266° West 449 517 34,000  Level Minneapolis Center
10:27PM 43.2306 -91.2436 266° West 456 525 34,000  Level Minneapolis Center
10:28PM 43.2214 -91.4178 266° West 463 533 34,000  Level Minneapolis Center
10:29PM 43.2111 -91.5939 265° West 469 540 34,100  Climbing Minneapolis Center
10:30PM 43.2025 -91.7342 265° West 471 542 34,000 -60 Descending Minneapolis Center
10:31PM 43.1881 -91.9453 265° West 472 543 34,000  Level Minneapolis Center
10:32PM 43.1750 -92.1581 265° West 475 547 34,000  Level Minneapolis Center
10:33PM 43.1631 -92.3397 265° West 483 556 34,000  Level Minneapolis Center
10:34PM 43.1481 -92.5600 265° West 490 564 34,100  Climbing Minneapolis Center
10:35PM 43.1347 -92.7414 264° West 488 562 34,000 -60 Descending Minneapolis Center
10:36PM 43.1233 -92.9217 265° West 483 556 34,000  Level Minneapolis Center
10:37PM 43.1103 -93.1019 264° West 482 555 34,000  Level Minneapolis Center
10:39PM 43.0969 -93.2797 264° West 477 549 34,000  Level Minneapolis Center
10:40PM 43.0803 -93.4939 264° West 477 549 34,000  Level Minneapolis Center
10:41PM 43.0622 -93.6739 262° West 481 554 34,000  Level Minneapolis Center
10:42PM 43.0444 -93.8539 262° West 481 554 34,000  Level Minneapolis Center
10:43PM 43.0233 -94.0700 262° West 482 555 34,000  Level Minneapolis Center
10:44PM 43.0056 -94.2497 262° West 481 554 34,000  Level Minneapolis Center
10:45PM 42.9869 -94.4272 262° West 480 552 34,000  Level Minneapolis Center
10:46PM 42.9706 -94.6028 263° West 474 545 34,000  Level Minneapolis Center
10:47PM 42.9561 -94.7389 262° West 469 540 34,000  Level Minneapolis Center
10:48PM 42.9333 -94.9500 262° West 468 539 34,000  Level Minneapolis Center
10:49PM 42.9144 -95.1247 262° West 467 537 34,000  Level Minneapolis Center
10:50PM 42.8958 -95.2994 262° West 466 536 34,000  Level Minneapolis Center
10:51PM 42.8806 -95.4394 262° West 466 536 34,000  Level Minneapolis Center
10:52PM 42.8567 -95.6486 261° West 465 535 34,000  Level Minneapolis Center
10:53PM 42.8372 -95.8222 261° West 464 534 34,000  Level Minneapolis Center
10:54PM 42.8169 -95.9989 261° West 468 539 34,000  Level Minneapolis Center
10:55PM 42.7956 -96.1758 261° West 471 542 34,100  Climbing Minneapolis Center
10:56PM 42.7750 -96.3522 261° West 471 542 34,000 -60 Descending Minneapolis Center
10:57PM 42.7489 -96.5589 260° West 465 535 34,000  Level Minneapolis Center
10:58PM 42.7275 -96.7325 261° West 466 536 34,000  Level Minneapolis Center
10:59PM 42.7075 -96.9056 261° West 465 535 34,000  Level Minneapolis Center
11:00PM 42.6858 -97.0764 260° West 460 529 34,000  Level Minneapolis Center
11:01PM 42.6647 -97.2431 260° West 466 536 34,000  Level Minneapolis Center
11:02PM 42.6425 -97.4150 260° West 467 537 34,000  Level Minneapolis Center
11:03PM 42.6203 -97.5889 260° West 467 537 34,100 -60 Climbing Minneapolis Center
11:04PM 42.5975 -97.7594 260° West 464 534 33,900 -60 Descending Minneapolis Center
11:05PM 42.5736 -97.9328 259° West 465 535 34,000  Climbing Minneapolis Center
11:06PM 42.5500 -98.1031 259° West 462 532 34,000  Level Minneapolis Center
11:07PM 42.5278 -98.2753 260° West 463 533 34,000  Level Minneapolis Center
11:08PM 42.5036 -98.4456 259° West 462 532 34,000  Level Minneapolis Center
11:09PM 42.4797 -98.6181 259° West 465 535 34,000  Level Minneapolis Center
11:10PM 42.4536 -98.7894 258° West 466 536 34,000  Level Minneapolis Center
11:11PM 42.4219 -98.9614 256° West 470 541 34,000  Level Minneapolis Center
11:12PM 42.3914 -99.1328 256° West 471 542 34,000  Level Minneapolis Center
11:13PM 42.3592 -99.3028 256° West 469 540 34,000  Level Minneapolis Center
11:14PM 42.3222 -99.5056 256° West 466 536 34,000  Level Minneapolis Center
11:15PM 42.2908 -99.6789 256° West 470 541 34,000  Level Minneapolis Center
11:16PM 42.2592 -99.8506 256° West 472 543 34,100 60 Climbing Minneapolis Center
11:17PM 42.2472 -99.9097 255° West 479 551 34,100 -60 Level Denver Center
11:18PM 42.2108 -100.1003 256° West 472 543 34,000 -60 Descending Denver Center
11:19PM 42.1694 -100.3161 256° West 468 539 34,000  Level Denver Center
11:20PM 42.1383 -100.4764 255° West 463 533 34,000  Level Denver Center
11:21PM 42.1072 -100.6378 255° West 467 537 34,000  Level Denver Center
11:22PM 42.0703 -100.8217 255° West 458 527 34,000  Level Denver Center
11:23PM 42.0392 -100.9819 255° West 462 532 34,000  Level Denver Center
11:24PM 42.0069 -101.1419 255° West 464 534 34,000  Level Denver Center
11:25PM 41.9692 -101.3267 255° West 461 531 34,000  Level Denver Center
11:26PM 41.9369 -101.4856 255° West 461 531 34,000  Level Denver Center
11:27PM 41.9047 -101.6422 255° West 457 526 34,000  Level Denver Center
11:28PM 41.8669 -101.8256 255° West 458 527 34,000  Level Denver Center
11:29PM 41.8342 -101.9828 254° West 459 528 34,000  Level Denver Center
11:30PM 41.7897 -102.1917 254° West 458 527 34,000  Level Denver Center
11:31PM 41.7553 -102.3525 254° West 455 524 34,000  Level Denver Center
11:32PM 41.7239 -102.5022 254° West 454 522 34,000  Level Denver Center
11:33PM 41.6889 -102.6608 254° West 450 518 34,000  Level Denver Center
11:34PM 41.6497 -102.8419 254° West 452 520 34,000  Level Denver Center
11:35PM 41.6161 -102.9981 254° West 457 526 34,000  Level Denver Center
11:36PM 41.5825 -103.1536 254° West 456 525 34,000  Level Denver Center
11:37PM 41.5472 -103.3103 253° West 459 528 34,000  Level Denver Center
11:38PM 41.5061 -103.4925 253° West 459 528 34,000  Level Denver Center
11:39PM 41.4706 -103.6486 253° West 460 529 34,000  Level Denver Center
11:40PM 41.4353 -103.8047 253° West 460 529 34,000  Level Denver Center
11:41PM 41.3936 -103.9856 253° West 457 526 34,000  Level Denver Center
11:42PM 41.3586 -104.1392 253° West 454 522 34,000  Level Denver Center
11:43PM 41.3233 -104.2906 253° West 448 516 34,000 480 Level Denver Center
11:44PM 41.2825 -104.4667 253° West 445 512 35,000 900 Climbing Denver Center
11:45PM 41.2478 -104.6161 253° West 442 509 35,900 480 Climbing Denver Center
11:46PM 41.2122 -104.7642 252° West 440 506 36,000  Climbing Denver Center
11:47PM 41.1850 -104.9158 257° West 439 505 36,000  Level Denver Center
11:48PM 41.1539 -105.0964 257° West 445 512 36,000  Level Denver Center
11:49PM 41.1269 -105.2503 257° West 447 514 36,000  Level Denver Center
11:50PM 41.0986 -105.4028 256° West 446 513 36,000  Level Denver Center
11:51PM 41.0672 -105.5828 257° West 448 516 36,100  Climbing Denver Center
11:52PM 41.0397 -105.7358 257° West 446 513 36,000 -60 Descending Denver Center
11:53PM 41.0128 -105.8858 257° West 442 509 36,000  Level Denver Center
11:54PM 40.9839 -106.0411 256° West 439 505 36,000  Level Denver Center
11:55PM 40.9533 -106.2075 256° West 437 503 36,000  Level Denver Center
11:56PM 40.9247 -106.3561 256° West 436 502 36,000  Level Denver Center
11:57PM 40.8969 -106.5078 256° West 441 507 36,000 -240 Level Denver Center
11:58PM 40.8642 -106.6853 256° West 445 512 35,600 -660 Descending Denver Center
11:59PM 40.8353 -106.8342 256° West 438 504 34,700 -840 Descending Denver Center
12:00AM 40.8061 -106.9867 256° West 446 513 34,000 -360 Descending Denver Center
12:01AM 40.7711 -107.1625 255° West 446 513 34,000  Level Denver Center
12:02AM 40.7417 -107.3117 255° West 445 512 34,000  Level Denver Center
12:03AM 40.7117 -107.4636 255° West 448 516 34,100  Climbing Denver Center
12:04AM 40.6772 -107.6406 256° West 448 516 34,000 -60 Descending Denver Center
12:05AM 40.6478 -107.7894 255° West 442 509 34,000  Level Denver Center
12:06AM 40.6167 -107.9394 255° West 444 511 34,000  Level Denver Center
12:07AM 40.5814 -108.1133 255° West 443 510 34,000  Level Denver Center
12:08AM 40.5503 -108.2639 255° West 446 513 34,000  Level Denver Center
12:09AM 40.5200 -108.4119 255° West 442 509 34,000  Level Denver Center
12:10AM 40.4889 -108.5619 255° West 443 510 34,000  Level Denver Center
12:11AM 40.4522 -108.7358 255° West 445 512 34,000  Level Denver Center
12:12AM 40.4211 -108.8825 254° West 441 507 34,000  Level Denver Center
12:13AM 40.3908 -109.0264 255° West 433 498 34,000  Level Denver Center
12:14AM 40.3539 -109.1956 254° West 433 498 34,000  Level Denver Center
12:15AM 40.3225 -109.3400 254° West 433 498 34,000  Level Denver Center
12:17AM 40.2808 -109.5336 254° West 433 498 34,000  Level Salt Lake Center
12:18AM 40.2442 -109.7022 254° West 432 497 34,000  Level Salt Lake Center
12:19AM 40.2119 -109.8464 254° West 432 497 34,000  Level Salt Lake Center
12:20AM 40.1794 -109.9889 253° West 431 496 34,000  Level Salt Lake Center
12:21AM 40.1414 -110.1542 253° West 426 490 34,000  Level Salt Lake Center
12:22AM 40.1303 -110.2997 264° West 423 487 34,000  Level Salt Lake Center
12:23AM 40.1264 -110.4472 268° West 425 489 34,000  Level Salt Lake Center
12:24AM 40.1194 -110.6186 267° West 423 487 34,000  Level Salt Lake Center
12:25AM 40.1125 -110.7644 266° West 423 487 34,000  Level Salt Lake Center
12:26AM 40.1072 -110.9122 267° West 425 489 34,000  Level Salt Lake Center
12:27AM 40.1033 -111.0611 268° West 426 490 34,000  Level Salt Lake Center
12:28AM 40.0989 -111.2147 268° West 424 488 34,000  Level Salt Lake Center
12:29AM 40.0925 -111.3694 267° West 425 489 34,000  Level Salt Lake Center
12:30AM 40.0900 -111.5228 269° West 423 487 34,000 60 Level Salt Lake Center
12:31AM 40.0983 -111.6786 274° West 429 494 34,200 660 Climbing Salt Lake Center
12:32AM 40.1067 -111.8364 274° West 441 507 35,400 840 Climbing Salt Lake Center
12:33AM 40.1150 -111.9914 274° West 425 489 36,000 240 Climbing Salt Lake Center
12:34AM 40.1244 -112.1433 275° West 419 482 36,000  Level Salt Lake Center
12:35AM 40.1342 -112.2944 275° West 417 480 36,000  Level Salt Lake Center
12:36AM 40.1386 -112.4453 272° West 417 480 36,000  Level Salt Lake Center
12:37AM 40.1381 -112.5967 270° West 415 478 36,000  Level Salt Lake Center
12:38AM 40.1394 -112.7500 271° West 422 486 36,000  Level Salt Lake Center
12:39AM 40.1119 -112.8969 256° West 417 480 36,000  Level Salt Lake Center
12:40AM 40.0881 -113.0469 258° West 421 484 36,000  Level Salt Lake Center
12:41AM 40.0678 -113.1942 260° West 415 478 36,000  Level Salt Lake Center
12:42AM 40.0461 -113.3458 259° West 423 487 36,000  Level Salt Lake Center
12:43AM 40.0253 -113.4992 260° West 429 494 36,000  Level Salt Lake Center
12:44AM 40.0061 -113.6525 261° West 429 494 36,000  Level Salt Lake Center
12:45AM 39.9853 -113.8075 260° West 433 498 36,000  Level Salt Lake Center
12:46AM 39.9650 -113.9600 260° West 430 495 36,100  Climbing Salt Lake Center
12:47AM 39.9375 -114.1417 259° West 428 493 36,000 -60 Descending Salt Lake Center
12:48AM 39.8997 -114.2869 251° West 426 490 36,000  Level Salt Lake Center
12:49AM 39.8500 -114.4283 245° Southwest 429 494 36,000  Level Salt Lake Center
12:50AM 39.8031 -114.5706 247° West 429 494 36,000  Level Salt Lake Center
12:51AM 39.7558 -114.7131 247° West 430 495 36,100  Climbing Salt Lake Center
12:52AM 39.7103 -114.8447 246° West 426 490 36,000 -60 Descending Salt Lake Center
12:53AM 39.6656 -114.9794 247° West 425 489 36,000  Level Salt Lake Center
12:54AM 39.6117 -115.1347 246° West 423 487 36,000  Level Salt Lake Center
12:55AM 39.5661 -115.2658 246° West 418 481 36,000  Level Salt Lake Center
12:56AM 39.5200 -115.3989 246° West 422 486 36,000  Level Salt Lake Center
12:57AM 39.4719 -115.5331 245° Southwest 426 490 36,000  Level Salt Lake Center
12:58AM 39.4189 -115.6881 246° West 421 484 36,000  Level Salt Lake Center
12:59AM 39.3717 -115.8211 245° Southwest 423 487 36,000  Level Salt Lake Center
01:00AM 39.3244 -115.9556 246° West 427 491 36,000  Level Salt Lake Center
01:01AM 39.2769 -116.0889 245° Southwest 427 491 36,000  Level Salt Lake Center
01:02AM 39.2219 -116.2439 245° Southwest 425 489 36,000  Level Salt Lake Center
01:03AM 39.1750 -116.3761 245° Southwest 423 487 36,000  Level Salt Lake Center
01:04AM 39.1275 -116.5069 245° Southwest 420 483 36,000  Level Salt Lake Center
01:05AM 39.0811 -116.6364 245° Southwest 423 487 36,000  Level Salt Lake Center
01:06AM 39.0211 -116.8022 245° Southwest 427 491 36,100  Climbing Salt Lake Center
01:07AM 38.9806 -116.9144 245° Southwest 431 496 36,100 -60 Level Oakland Center
01:08AM 38.9272 -117.0594 245° Southwest 427 491 36,000 -60 Descending Oakland Center
01:09AM 38.8792 -117.1897 245° Southwest 430 495 36,000  Level Oakland Center
01:10AM 38.8275 -117.3297 245° Southwest 435 501 36,000  Level Oakland Center
01:11AM 38.7756 -117.4692 244° Southwest 436 502 36,100  Climbing Oakland Center
01:12AM 38.7256 -117.6056 245° Southwest 428 493 36,000 -60 Descending Oakland Center
01:13AM 38.6692 -117.7539 244° Southwest 425 489 36,000  Level Oakland Center
01:14AM 38.6267 -117.9108 251° West 429 494 36,000  Level Oakland Center
01:15AM 38.5894 -118.0528 251° West 425 489 36,000  Level Oakland Center
01:16AM 38.5556 -118.1831 252° West 422 486 36,000  Level Oakland Center
01:17AM 38.5169 -118.3267 251° West 424 488 36,000  Level Oakland Center
01:18AM 38.4792 -118.4692 251° West 424 488 36,000  Level Oakland Center
01:19AM 38.4406 -118.6125 251° West 425 489 36,000  Level Oakland Center
01:20AM 38.4011 -118.7567 251° West 428 493 36,000  Level Oakland Center
01:21AM 38.3625 -118.9014 251° West 430 495 36,000  Level Oakland Center
01:22AM 38.3217 -119.0478 250° West 435 501 36,100  Climbing Oakland Center
01:23AM 38.2819 -119.1919 251° West 433 498 36,000 -60 Descending Oakland Center
01:24AM 38.2431 -119.3344 251° West 429 494 36,000  Level Oakland Center
01:25AM 38.2044 -119.4775 251° West 428 493 36,000 -180 Level Oakland Center
01:26AM 38.1631 -119.6214 250° West 430 495 35,700 -660 Descending Oakland Center
01:27AM 38.1239 -119.7658 251° West 432 497 34,700 -1,020 Descending Oakland Center
01:28AM 38.0831 -119.9122 251° West 437 503 33,700 -960 Descending Oakland Center
01:29AM 38.0406 -120.0600 250° West 443 510 32,800 -1,260 Descending Oakland Center
01:30AM 37.9992 -120.2069 250° West 442 509 31,200 -1,980 Descending Oakland Center
01:31AM 37.9575 -120.3531 250° West 439 505 28,900 -2,280 Descending Oakland Center
01:32AM 37.9153 -120.4936 249° West 428 493 26,700 -2,220 Descending Oakland Center
01:33AM 37.8756 -120.6317 250° West 418 481 24,500 -2,400 Descending Oakland Center
01:34AM 37.8583 -120.7733 261° West 405 466 21,900 -2,580 Descending Oakland Center
01:35AM 37.8506 -120.9167 266° West 407 468 19,400 -2,760 Descending Oakland Center
01:36AM 37.8333 -121.0833 263° West 383 441 16,100 -2,700 Descending Northern Cal TRACON
01:37AM 37.8167 -121.2000 260° West 416 479 13,700 -2,340 Descending Northern Cal TRACON
01:38AM 37.7833 -121.3167 250° West 341 392 11,500 -1,620 Descending Northern Cal TRACON
01:39AM 37.7500 -121.4167 247° West 303 349 10,500 -960 Descending Northern Cal TRACON
01:40AM 37.7167 -121.5167 247° West 286 329 9,600 -1,200 Descending Northern Cal TRACON
01:41AM 37.6833 -121.6000 243° Southwest 284 327 8,100 -1,440 Descending Northern Cal TRACON
01:42AM 37.6667 -121.7167 260° West 270 311 6,700 -960 Descending Northern Cal TRACON
01:43AM 37.6500 -121.8000 256° West 239 275 6,100 -720 Descending Northern Cal TRACON
01:44AM 37.6333 -121.8667 252° West 215 247 5,300 -900 Descending Northern Cal TRACON
01:45AM 37.6167 -121.9333 253° West 212 244 4,300 -900 Descending Northern Cal TRACON
01:46AM 37.6000 -122.0000 253° West 189 217 3,500 -540 Descending Northern Cal TRACON
01:47AM 37.6000 -122.0500 270° West 177 204 3,300 -720 Descending Northern Cal TRACON
01:48AM 37.6333 -122.1000 310° West 165 190 2,100 -960 Descending Northern Cal TRACON
01:49AM 37.6500 -122.1500 293° West 139 160 1,300 -720 Descending Northern Cal TRACON
01:50AM 37.6833 -122.1833 322° Northwest 137 158 700 -600 Descending Northern Cal TRACON
01:54AM 37.7167 -122.2167 270° West  Level FlightAware Approximate